createdAt,value
2022-08-20T00:00:03.593Z,46.42
2022-08-20T00:01:08.841Z,51.78
2022-08-20T00:02:12.073Z,30.38
2022-08-20T00:03:17.252Z,20.87
2022-08-20T00:04:20.462Z,23.23
2022-08-20T00:05:25.831Z,31.90
2022-08-20T00:06:29.084Z,57.80
2022-08-20T00:07:31.139Z,35.23
2022-08-20T00:08:34.701Z,33.27
2022-08-20T00:09:43.144Z,22.37
2022-08-20T00:10:53.675Z,31.70
2022-08-20T00:11:58.201Z,28.00
2022-08-20T00:13:01.943Z,20.02
2022-08-20T00:14:06.246Z,23.00
2022-08-20T00:15:10.167Z,26.50
2022-08-20T00:16:14.482Z,34.65
2022-08-20T00:17:17.571Z,20.40
2022-08-20T00:18:19.906Z,24.13
2022-08-20T00:19:27.139Z,21.40
2022-08-20T00:20:34.781Z,19.30
2022-08-20T00:21:38.966Z,23.60
2022-08-20T00:22:42.721Z,18.45
2022-08-20T00:23:48.502Z,19.85
2022-08-20T00:24:52.266Z,18.60
2022-08-20T00:25:55.309Z,19.20
2022-08-20T00:26:57.596Z,21.57
2022-08-20T00:28:02.779Z,27.80
2022-08-20T00:29:05.115Z,20.35
2022-08-20T00:30:11.898Z,20.55
2022-08-20T00:31:17.463Z,18.85
2022-08-20T00:32:20.783Z,20.63
2022-08-20T00:33:25.458Z,18.45
2022-08-20T00:34:27.866Z,19.27
2022-08-20T00:35:33.917Z,18.20
2022-08-20T00:36:37.232Z,18.30
2022-08-20T00:37:40.283Z,25.30
2022-08-20T00:38:44.943Z,20.05
2022-08-20T00:39:48.310Z,18.30
2022-08-20T00:40:55.090Z,19.05
2022-08-20T00:41:58.618Z,18.60
2022-08-20T00:43:04.074Z,22.13
2022-08-20T00:44:11.699Z,18.92
2022-08-20T00:45:15.684Z,19.95
2022-08-20T00:46:22.064Z,19.13
2022-08-20T00:47:33.213Z,18.37
2022-08-20T00:48:38.979Z,18.55
2022-08-20T00:49:41.335Z,18.92
2022-08-20T00:50:45.830Z,21.73
2022-08-20T00:51:53.026Z,19.40
2022-08-20T00:52:57.017Z,18.60
2022-08-20T00:54:03.274Z,19.40
2022-08-20T00:55:09.578Z,21.23
2022-08-20T00:56:14.644Z,18.92
2022-08-20T00:57:25.224Z,20.60
2022-08-20T00:58:28.872Z,21.10
2022-08-20T00:59:35.282Z,23.48
2022-08-20T01:00:40.350Z,21.48
2022-08-20T01:01:55.398Z,21.55
2022-08-20T01:03:00.775Z,21.45
2022-08-20T01:04:03.086Z,22.75
2022-08-20T01:05:09.480Z,23.55
2022-08-20T01:06:12.931Z,23.80
2022-08-20T01:07:16.165Z,22.10
2022-08-20T01:08:21.278Z,21.77
2022-08-20T01:09:33.357Z,22.05
2022-08-20T01:10:50.184Z,22.38
2022-08-20T01:11:55.090Z,21.15
2022-08-20T01:12:59.587Z,22.02
2022-08-20T01:14:16.011Z,22.65
2022-08-20T01:15:22.086Z,23.48
2022-08-20T01:16:33.992Z,21.95
2022-08-20T01:17:39.882Z,23.15
2022-08-20T01:18:43.273Z,23.30
2022-08-20T01:19:49.835Z,22.15
2022-08-20T01:20:56.292Z,22.58
2022-08-20T01:21:59.573Z,22.77
2022-08-20T01:23:30.434Z,23.80
2022-08-20T01:24:37.381Z,22.35
2022-08-20T01:25:45.615Z,23.35
2022-08-20T01:26:50.272Z,23.50
2022-08-20T01:27:55.661Z,22.75
2022-08-20T01:29:03.057Z,23.42
2022-08-20T01:30:08.069Z,24.13
2022-08-20T01:31:14.717Z,24.15
2022-08-20T01:32:17.406Z,23.08
2022-08-20T01:33:20.947Z,23.02
2022-08-20T01:34:23.199Z,23.45
2022-08-20T01:35:27.354Z,23.85
2022-08-20T01:36:34.089Z,22.90
2022-08-20T01:37:37.269Z,23.25
2022-08-20T01:38:39.848Z,22.25
2022-08-20T01:39:43.350Z,23.20
2022-08-20T01:41:12.823Z,21.27
2022-08-20T01:42:21.534Z,19.05
2022-08-20T01:43:24.695Z,19.08
2022-08-20T01:44:29.733Z,18.20
2022-08-20T01:45:33.961Z,19.35
2022-08-20T01:46:44.060Z,19.75
2022-08-20T01:47:46.653Z,18.60
2022-08-20T01:48:54.262Z,19.33
2022-08-20T01:50:00.266Z,19.00
2022-08-20T01:51:08.957Z,19.35
2022-08-20T01:52:18.055Z,20.83
2022-08-20T01:53:27.756Z,19.13
2022-08-20T01:54:32.043Z,19.38
2022-08-20T01:55:35.278Z,20.52
2022-08-20T01:56:55.091Z,21.88
2022-08-20T01:57:59.079Z,19.90
2022-08-20T01:59:05.478Z,20.90
2022-08-20T02:00:20.171Z,20.75
2022-08-20T02:01:28.898Z,20.17
2022-08-20T02:02:31.131Z,22.65
2022-08-20T02:03:38.788Z,22.20
2022-08-20T02:04:43.884Z,22.10
2022-08-20T02:05:45.953Z,23.05
2022-08-20T02:06:56.405Z,42.63
2022-08-20T02:08:00.499Z,39.20
2022-08-20T02:09:05.266Z,25.40
2022-08-20T02:10:10.236Z,32.67
2022-08-20T02:11:17.488Z,34.95
2022-08-20T02:12:20.926Z,30.20
2022-08-20T02:13:24.879Z,27.60
2022-08-20T02:14:27.989Z,24.05
2022-08-20T02:15:37.168Z,23.52
2022-08-20T02:16:54.716Z,24.58
2022-08-20T02:17:58.633Z,23.50
2022-08-20T02:19:03.470Z,24.58
2022-08-20T02:20:10.838Z,23.70
2022-08-20T02:21:13.320Z,24.00
2022-08-20T02:22:22.481Z,25.55
2022-08-20T02:23:24.775Z,23.27
2022-08-20T02:24:27.854Z,23.80
2022-08-20T02:25:33.167Z,24.52
2022-08-20T02:26:38.025Z,24.35
2022-08-20T02:27:45.865Z,24.13
2022-08-20T02:28:52.941Z,23.15
2022-08-20T02:29:57.495Z,25.50
2022-08-20T02:31:02.970Z,24.73
2022-08-20T02:32:32.689Z,25.75
2022-08-20T02:33:32.662Z,24.90
2022-08-20T02:34:34.892Z,26.25
2022-08-20T02:35:39.017Z,26.80
2022-08-20T02:36:42.197Z,25.10
2022-08-20T02:37:46.833Z,24.27
2022-08-20T02:38:49.072Z,25.20
2022-08-20T02:39:52.233Z,24.73
2022-08-20T02:40:54.618Z,25.70
2022-08-20T02:41:57.757Z,23.80
2022-08-20T02:43:02.349Z,25.38
2022-08-20T02:44:06.981Z,24.45
2022-08-20T02:45:11.395Z,24.73
2022-08-20T02:46:20.739Z,25.02
2022-08-20T02:47:24.641Z,23.88
2022-08-20T02:48:28.557Z,25.02
2022-08-20T02:49:30.878Z,24.15
2022-08-20T02:50:34.094Z,24.45
2022-08-20T02:51:39.622Z,20.80
2022-08-20T02:52:47.185Z,22.75
2022-08-20T02:53:55.403Z,20.73
2022-08-20T02:54:57.516Z,20.17
2022-08-20T02:56:00.989Z,20.35
2022-08-20T02:57:03.640Z,20.23
2022-08-20T02:58:08.230Z,19.95
2022-08-20T02:59:10.677Z,18.70
2022-08-20T03:00:23.580Z,16.70
2022-08-20T03:01:26.003Z,16.70
2022-08-20T03:02:30.274Z,16.45
2022-08-20T03:03:32.590Z,15.52
2022-08-20T03:04:35.679Z,15.63
2022-08-20T03:05:40.031Z,14.18
2022-08-20T03:06:43.194Z,14.18
2022-08-20T03:07:48.006Z,13.48
2022-08-20T03:08:51.174Z,12.68
2022-08-20T03:09:53.330Z,11.57
2022-08-20T03:10:56.890Z,11.68
2022-08-20T03:11:59.258Z,11.32
2022-08-20T03:13:03.217Z,11.55
2022-08-20T03:14:09.681Z,11.15
2022-08-20T03:15:17.154Z,11.35
2022-08-20T03:16:20.042Z,11.07
2022-08-20T03:17:22.997Z,11.82
2022-08-20T03:18:28.902Z,11.65
2022-08-20T03:19:31.935Z,11.57
2022-08-20T03:20:35.110Z,11.90
2022-08-20T03:21:38.408Z,12.02
2022-08-20T03:22:40.691Z,12.63
2022-08-20T03:23:44.190Z,13.00
2022-08-20T03:24:46.287Z,12.70
2022-08-20T03:25:52.035Z,13.43
2022-08-20T03:26:54.179Z,13.65
2022-08-20T03:27:58.098Z,14.52
2022-08-20T03:29:00.357Z,14.10
2022-08-20T03:30:06.689Z,14.73
2022-08-20T03:31:10.208Z,14.52
2022-08-20T03:32:14.805Z,14.38
2022-08-20T03:33:20.307Z,13.48
2022-08-20T03:34:22.575Z,13.80
2022-08-20T03:35:28.212Z,13.20
2022-08-20T03:36:31.766Z,14.10
2022-08-20T03:37:36.038Z,13.57
2022-08-20T03:38:42.577Z,13.48
2022-08-20T03:39:44.985Z,14.30
2022-08-20T03:40:49.678Z,13.05
2022-08-20T03:41:51.948Z,13.90
2022-08-20T03:42:55.436Z,13.65
2022-08-20T03:43:58.741Z,14.20
2022-08-20T03:45:00.926Z,14.00
2022-08-20T03:46:05.521Z,13.13
2022-08-20T03:47:24.882Z,13.73
2022-08-20T03:48:28.344Z,12.88
2022-08-20T03:49:30.624Z,14.52
2022-08-20T03:50:34.003Z,13.88
2022-08-20T03:51:57.305Z,13.88
2022-08-20T03:53:00.050Z,14.23
2022-08-20T03:54:02.149Z,13.90
2022-08-20T03:55:07.169Z,14.65
2022-08-20T03:56:09.182Z,14.35
2022-08-20T03:57:16.810Z,14.63
2022-08-20T03:58:19.473Z,14.35
2022-08-20T03:59:23.121Z,15.48
2022-08-20T04:00:27.791Z,15.70
2022-08-20T04:01:45.457Z,14.25
2022-08-20T04:02:48.974Z,15.50
2022-08-20T04:03:55.210Z,14.80
2022-08-20T04:04:57.339Z,14.65
2022-08-20T04:06:01.110Z,15.27
2022-08-20T04:07:10.614Z,14.82
2022-08-20T04:08:17.427Z,15.68
2022-08-20T04:09:19.493Z,16.13
2022-08-20T04:10:22.543Z,14.65
2022-08-20T04:11:24.699Z,15.13
2022-08-20T04:12:27.725Z,16.15
2022-08-20T04:13:30.633Z,15.75
2022-08-20T04:14:33.758Z,14.85
2022-08-20T04:15:37.154Z,14.80
2022-08-20T04:16:41.629Z,15.60
2022-08-20T04:17:48.049Z,16.55
2022-08-20T04:18:56.243Z,16.70
2022-08-20T04:20:06.177Z,17.25
2022-08-20T04:21:09.305Z,17.88
2022-08-20T04:22:13.822Z,16.15
2022-08-20T04:23:17.023Z,16.98
2022-08-20T04:24:22.520Z,18.30
2022-08-20T04:25:36.348Z,17.80
2022-08-20T04:26:38.532Z,17.73
2022-08-20T04:27:43.219Z,17.20
2022-08-20T04:28:45.521Z,16.67
2022-08-20T04:29:48.627Z,18.42
2022-08-20T04:30:52.420Z,19.42
2022-08-20T04:31:56.853Z,18.33
2022-08-20T04:32:59.742Z,18.52
2022-08-20T04:34:04.104Z,18.80
2022-08-20T04:35:09.220Z,18.13
2022-08-20T04:36:14.474Z,18.80
2022-08-20T04:37:21.125Z,19.40
2022-08-20T04:38:24.521Z,18.65
2022-08-20T04:39:27.014Z,19.63
2022-08-20T04:40:48.763Z,22.17
2022-08-20T04:41:51.762Z,19.52
2022-08-20T04:43:05.632Z,20.88
2022-08-20T04:44:09.134Z,20.63
2022-08-20T04:45:13.839Z,21.33
2022-08-20T04:46:17.049Z,21.42
2022-08-20T04:47:25.375Z,20.40
2022-08-20T04:48:48.524Z,20.60
2022-08-20T04:49:51.366Z,19.08
2022-08-20T04:51:02.589Z,20.52
2022-08-20T04:52:06.345Z,20.33
2022-08-20T04:53:11.650Z,20.35
2022-08-20T04:54:14.702Z,20.80
2022-08-20T04:55:19.181Z,21.75
2022-08-20T04:56:24.171Z,20.38
2022-08-20T04:57:28.041Z,20.48
2022-08-20T04:58:34.018Z,20.50
2022-08-20T04:59:37.083Z,21.25
2022-08-20T05:00:45.196Z,21.40
2022-08-20T05:01:48.470Z,20.90
2022-08-20T05:02:51.937Z,22.40
2022-08-20T05:03:55.975Z,20.58
2022-08-20T05:04:59.362Z,21.02
2022-08-20T05:06:02.722Z,20.55
2022-08-20T05:07:05.159Z,21.52
2022-08-20T05:08:19.857Z,20.95
2022-08-20T05:09:25.287Z,21.08
2022-08-20T05:10:29.106Z,20.45
2022-08-20T05:11:36.024Z,20.90
2022-08-20T05:12:40.929Z,20.17
2022-08-20T05:13:43.088Z,20.80
2022-08-20T05:14:47.155Z,20.48
2022-08-20T05:15:49.688Z,21.33
2022-08-20T05:16:53.308Z,20.73
2022-08-20T05:18:00.908Z,20.45
2022-08-20T05:19:04.439Z,20.10
2022-08-20T05:20:10.522Z,19.60
2022-08-20T05:21:13.265Z,19.23
2022-08-20T05:22:19.662Z,21.98
2022-08-20T05:23:23.998Z,19.85
2022-08-20T05:24:27.455Z,20.25
2022-08-20T05:25:32.387Z,20.15
2022-08-20T05:26:36.017Z,20.05
2022-08-20T05:27:38.622Z,19.35
2022-08-20T05:28:51.288Z,20.60
2022-08-20T05:30:05.518Z,19.73
2022-08-20T05:31:12.173Z,19.20
2022-08-20T05:32:14.195Z,20.27
2022-08-20T05:33:20.906Z,19.13
2022-08-20T05:34:23.371Z,20.77
2022-08-20T05:35:27.394Z,18.58
2022-08-20T05:36:29.733Z,20.00
2022-08-20T05:37:32.961Z,19.65
2022-08-20T05:38:36.524Z,18.80
2022-08-20T05:39:39.841Z,19.33
2022-08-20T05:40:42.855Z,20.83
2022-08-20T05:41:46.319Z,20.58
2022-08-20T05:42:48.453Z,20.30
2022-08-20T05:43:51.990Z,21.02
2022-08-20T05:44:54.324Z,21.48
2022-08-20T05:45:59.035Z,20.98
2022-08-20T05:47:04.143Z,21.15
2022-08-20T05:48:08.347Z,20.33
2022-08-20T05:49:15.804Z,21.73
2022-08-20T05:50:19.926Z,21.73
2022-08-20T05:51:26.766Z,20.83
2022-08-20T05:52:30.463Z,19.83
2022-08-20T05:53:34.756Z,19.63
2022-08-20T05:54:38.289Z,19.30
2022-08-20T05:55:41.584Z,19.00
2022-08-20T05:56:45.050Z,21.25
2022-08-20T05:57:47.382Z,19.20
2022-08-20T05:58:51.161Z,19.30
2022-08-20T05:59:55.306Z,20.10
2022-08-20T06:00:59.189Z,19.17
2022-08-20T06:02:01.395Z,19.27
2022-08-20T06:03:22.301Z,20.40
2022-08-20T06:04:27.005Z,18.13
2022-08-20T06:05:30.251Z,18.13
2022-08-20T06:06:44.563Z,19.17
2022-08-20T06:07:50.675Z,19.98
2022-08-20T06:08:56.807Z,19.25
2022-08-20T06:10:02.085Z,19.55
2022-08-20T06:11:05.618Z,19.27
2022-08-20T06:12:09.467Z,18.55
2022-08-20T06:13:13.820Z,18.45
2022-08-20T06:14:17.725Z,18.77
2022-08-20T06:15:20.694Z,19.92
2022-08-20T06:16:29.044Z,18.48
2022-08-20T06:17:34.853Z,19.88
2022-08-20T06:18:42.834Z,20.58
2022-08-20T06:19:47.683Z,20.70
2022-08-20T06:20:51.583Z,18.85
2022-08-20T06:21:53.920Z,19.10
2022-08-20T06:25:43.310Z,19.50
2022-08-20T06:26:48.242Z,19.92
2022-08-20T06:27:51.908Z,19.92
2022-08-20T06:28:54.282Z,19.90
2022-08-20T06:29:58.023Z,19.23
2022-08-20T06:31:00.327Z,18.88
2022-08-20T06:32:07.131Z,19.48
2022-08-20T06:33:33.727Z,19.65
2022-08-20T06:36:15.017Z,18.77
2022-08-20T06:37:31.627Z,19.45
2022-08-20T06:38:38.730Z,19.60
2022-08-20T06:39:44.251Z,19.70
2022-08-20T06:40:50.040Z,19.02
2022-08-20T06:41:52.582Z,19.10
2022-08-20T06:42:58.142Z,18.20
2022-08-20T06:44:00.751Z,19.05
2022-08-20T06:45:05.897Z,19.77
2022-08-20T06:46:08.327Z,19.58
2022-08-20T06:47:14.577Z,18.67
2022-08-20T06:48:17.367Z,19.05
2022-08-20T06:49:20.541Z,19.20
2022-08-20T06:50:26.996Z,19.88
2022-08-20T06:51:31.721Z,21.60
2022-08-20T06:52:52.842Z,20.73
2022-08-20T06:53:57.109Z,21.30
2022-08-20T06:54:59.334Z,20.92
2022-08-20T06:56:03.249Z,19.83
2022-08-20T06:57:05.778Z,19.77
2022-08-20T06:58:35.789Z,20.83
2022-08-20T06:59:34.722Z,20.35
2022-08-20T07:00:40.742Z,19.38
2022-08-20T07:01:43.055Z,20.90
2022-08-20T07:02:46.879Z,20.05
2022-08-20T07:03:54.678Z,20.80
2022-08-20T07:05:01.515Z,20.77
2022-08-20T07:06:04.937Z,21.60
2022-08-20T07:07:16.246Z,21.02
2022-08-20T07:08:22.281Z,27.45
2022-08-20T07:09:25.599Z,41.42
2022-08-20T07:10:30.297Z,20.23
2022-08-20T07:11:32.983Z,21.50
2022-08-20T07:12:36.958Z,20.55
2022-08-20T07:13:40.938Z,20.70
2022-08-20T07:14:44.379Z,22.73
2022-08-20T07:15:47.475Z,21.10
2022-08-20T07:16:50.523Z,19.80
2022-08-20T07:18:00.727Z,20.65
2022-08-20T07:19:04.708Z,20.13
2022-08-20T07:20:08.792Z,20.48
2022-08-20T07:21:12.962Z,20.25
2022-08-20T07:22:16.360Z,21.50
2022-08-20T07:23:19.482Z,20.20
2022-08-20T07:24:21.923Z,20.10
2022-08-20T07:25:25.410Z,19.92
2022-08-20T07:26:27.742Z,20.00
2022-08-20T07:27:30.828Z,21.40
2022-08-20T07:28:32.850Z,20.20
2022-08-20T07:29:50.031Z,19.17
2022-08-20T07:31:14.417Z,18.20
2022-08-20T07:32:39.659Z,19.70
2022-08-20T07:33:50.533Z,20.23
2022-08-20T07:34:52.852Z,19.10
2022-08-20T07:35:56.221Z,20.05
2022-08-20T07:36:59.983Z,21.02
2022-08-20T07:38:04.504Z,20.63
2022-08-20T07:39:07.750Z,21.40
2022-08-20T07:40:16.668Z,20.85
2022-08-20T07:41:19.630Z,20.58
2022-08-20T07:42:22.971Z,20.27
2022-08-20T07:43:25.512Z,20.08
2022-08-20T07:44:30.951Z,20.05
2022-08-20T07:45:34.193Z,20.25
2022-08-20T07:46:37.213Z,21.10
2022-08-20T07:47:41.290Z,20.70
2022-08-20T07:48:47.231Z,20.08
2022-08-20T07:49:49.412Z,20.92
2022-08-20T07:50:52.802Z,21.80
2022-08-20T07:51:57.165Z,22.25
2022-08-20T07:53:01.359Z,20.83
2022-08-20T07:54:06.018Z,20.63
2022-08-20T07:55:12.452Z,20.38
2022-08-20T07:56:19.379Z,23.23
2022-08-20T07:57:22.666Z,21.25
2022-08-20T07:58:29.580Z,22.25
2022-08-20T07:59:40.018Z,22.23
2022-08-20T08:00:42.344Z,22.42
2022-08-20T08:01:45.512Z,22.75
2022-08-20T08:02:48.182Z,24.67
2022-08-20T08:03:51.374Z,23.33
2022-08-20T08:04:55.337Z,24.25
2022-08-20T08:05:58.471Z,24.73
2022-08-20T08:07:01.865Z,25.98
2022-08-20T08:08:08.551Z,25.08
2022-08-20T08:09:15.583Z,25.58
2022-08-20T08:10:22.220Z,24.38
2022-08-20T08:11:27.787Z,24.90
2022-08-20T08:12:36.423Z,23.85
2022-08-20T08:13:42.786Z,22.83
2022-08-20T08:14:47.600Z,23.85
2022-08-20T08:15:50.938Z,22.98
2022-08-20T08:16:55.666Z,23.10
2022-08-20T08:18:01.800Z,25.35
2022-08-20T08:19:07.216Z,24.70
2022-08-20T08:20:12.445Z,25.50
2022-08-20T08:21:16.479Z,24.00
2022-08-20T08:22:20.997Z,24.75
2022-08-20T08:23:31.671Z,24.67
2022-08-20T08:24:36.998Z,25.38
2022-08-20T08:25:39.582Z,23.67
2022-08-20T08:26:42.619Z,24.98
2022-08-20T08:27:49.015Z,25.13
2022-08-20T08:28:52.593Z,25.77
2022-08-20T08:29:54.909Z,24.83
2022-08-20T08:30:58.605Z,26.20
2022-08-20T08:32:03.536Z,25.50
2022-08-20T08:33:24.832Z,26.00
2022-08-20T08:34:28.028Z,24.75
2022-08-20T08:35:31.599Z,23.35
2022-08-20T08:36:34.957Z,26.02
2022-08-20T08:37:38.214Z,24.90
2022-08-20T08:38:43.116Z,25.98
2022-08-20T08:39:46.863Z,25.88
2022-08-20T08:40:51.508Z,25.27
2022-08-20T08:42:03.545Z,26.35
2022-08-20T08:43:07.333Z,26.05
2022-08-20T08:44:21.633Z,25.73
2022-08-20T08:45:28.389Z,25.85
2022-08-20T08:46:35.335Z,25.33
2022-08-20T08:47:40.054Z,24.90
2022-08-20T08:48:46.138Z,26.15
2022-08-20T08:49:49.824Z,25.98
2022-08-20T08:50:57.469Z,24.83
2022-08-20T08:52:04.478Z,26.25
2022-08-20T08:53:11.964Z,25.70
2022-08-20T08:54:18.373Z,25.00
2022-08-20T08:55:22.998Z,24.98
2022-08-20T08:56:30.616Z,24.90
2022-08-20T08:57:32.731Z,26.63
2022-08-20T08:58:36.675Z,27.00
2022-08-20T08:59:48.563Z,27.77
2022-08-20T09:01:09.337Z,25.55
2022-08-20T09:02:20.585Z,26.30
2022-08-20T09:03:29.269Z,26.75
2022-08-20T09:04:35.673Z,25.73
2022-08-20T09:05:43.690Z,26.15
2022-08-20T09:06:51.708Z,25.13
2022-08-20T09:07:55.600Z,38.10
2022-08-20T09:09:01.074Z,27.65
2022-08-20T09:10:04.522Z,26.63
2022-08-20T09:11:10.004Z,25.70
2022-08-20T09:12:14.840Z,25.98
2022-08-20T09:13:17.949Z,30.63
2022-08-20T09:14:21.089Z,30.15
2022-08-20T09:15:24.332Z,26.25
2022-08-20T09:16:29.951Z,29.33
2022-08-20T09:17:51.816Z,26.20
2022-08-20T09:18:53.987Z,27.35
2022-08-20T09:19:57.255Z,28.42
2022-08-20T09:20:59.556Z,26.40
2022-08-20T09:22:09.548Z,25.75
2022-08-20T09:23:11.764Z,27.30
2022-08-20T09:24:17.410Z,31.10
2022-08-20T09:25:21.200Z,26.95
2022-08-20T09:26:29.195Z,28.20
2022-08-20T09:27:32.359Z,25.88
2022-08-20T09:28:37.197Z,27.25
2022-08-20T09:29:41.461Z,26.27
2022-08-20T09:30:43.695Z,27.88
2022-08-20T09:31:48.977Z,25.90
2022-08-20T09:32:51.536Z,30.70
2022-08-20T09:33:54.780Z,26.33
2022-08-20T09:34:59.264Z,27.05
2022-08-20T09:36:02.594Z,29.17
2022-08-20T09:37:05.022Z,27.15
2022-08-20T09:38:08.918Z,28.50
2022-08-20T09:39:12.485Z,28.05
2022-08-20T09:40:21.218Z,26.40
2022-08-20T09:41:26.181Z,26.00
2022-08-20T09:42:31.106Z,27.20
2022-08-20T09:43:34.666Z,25.60
2022-08-20T09:44:37.028Z,26.10
2022-08-20T09:45:40.584Z,25.90
2022-08-20T09:46:43.100Z,27.85
2022-08-20T09:47:56.718Z,25.20
2022-08-20T09:48:59.440Z,24.80
2022-08-20T09:50:02.978Z,26.30
2022-08-20T09:51:07.958Z,25.05
2022-08-20T09:52:15.812Z,24.15
2022-08-20T09:53:22.154Z,23.88
2022-08-20T09:54:28.397Z,23.48
2022-08-20T09:55:36.003Z,24.40
2022-08-20T09:56:40.568Z,27.70
2022-08-20T09:57:43.084Z,39.40
2022-08-20T09:58:50.155Z,26.10
2022-08-20T09:59:57.078Z,30.60
2022-08-20T10:01:02.252Z,27.27
2022-08-20T10:02:04.656Z,25.00
2022-08-20T10:03:08.517Z,22.98
2022-08-20T10:04:10.910Z,24.90
2022-08-20T10:05:17.570Z,25.15
2022-08-20T10:06:22.599Z,24.08
2022-08-20T10:07:24.801Z,23.00
2022-08-20T10:08:28.934Z,24.15
2022-08-20T10:09:33.389Z,25.20
2022-08-20T10:10:37.404Z,25.03
2022-08-20T10:11:40.888Z,23.60
2022-08-20T10:12:44.111Z,25.53
2022-08-20T10:13:46.321Z,25.30
2022-08-20T10:14:49.570Z,25.10
2022-08-20T10:15:51.656Z,23.90
2022-08-20T10:16:59.229Z,22.90
2022-08-20T10:18:08.009Z,25.20
2022-08-20T10:19:10.206Z,23.20
2022-08-20T10:20:18.443Z,24.37
2022-08-20T10:21:20.817Z,24.63
2022-08-20T10:22:24.484Z,24.08
2022-08-20T10:23:26.866Z,23.37
2022-08-20T10:24:32.454Z,23.90
2022-08-20T10:25:35.606Z,25.53
2022-08-20T10:26:38.503Z,25.33
2022-08-20T10:27:43.031Z,25.50
2022-08-20T10:28:45.133Z,24.87
2022-08-20T10:29:48.201Z,25.00
2022-08-20T10:30:50.416Z,26.40
2022-08-20T10:31:55.189Z,26.30
2022-08-20T10:32:58.540Z,25.40
2022-08-20T10:34:00.638Z,25.30
2022-08-20T10:35:04.797Z,26.73
2022-08-20T10:36:08.267Z,24.05
2022-08-20T10:37:15.562Z,25.00
2022-08-20T10:38:19.105Z,25.80
2022-08-20T10:39:21.447Z,25.03
2022-08-20T10:40:24.929Z,25.77
2022-08-20T10:41:28.443Z,24.83
2022-08-20T10:42:31.630Z,26.07
2022-08-20T10:43:35.285Z,24.80
2022-08-20T10:44:38.637Z,24.80
2022-08-20T10:45:41.157Z,25.13
2022-08-20T10:46:45.741Z,24.33
2022-08-20T10:47:47.859Z,25.45
2022-08-20T10:48:51.114Z,25.73
2022-08-20T10:49:55.758Z,25.55
2022-08-20T10:50:59.101Z,23.98
2022-08-20T10:52:01.161Z,22.50
2022-08-20T10:53:09.626Z,22.85
2022-08-20T10:54:12.373Z,22.33
2022-08-20T10:55:16.611Z,23.30
2022-08-20T10:56:18.983Z,21.08
2022-08-20T10:57:26.201Z,23.10
2022-08-20T10:58:37.523Z,24.37
2022-08-20T10:59:46.912Z,21.85
2022-08-20T11:00:49.154Z,21.60
2022-08-20T11:01:52.541Z,20.35
2022-08-20T11:02:59.365Z,19.93
2022-08-20T11:04:02.747Z,20.38
2022-08-20T11:05:06.882Z,18.43
2022-08-20T11:06:17.054Z,19.40
2022-08-20T11:07:50.848Z,19.73
2022-08-20T11:08:48.925Z,18.50
2022-08-20T11:09:51.893Z,23.90
2022-08-20T11:10:55.793Z,28.30
2022-08-20T11:11:58.126Z,38.63
2022-08-20T11:13:02.069Z,17.90
2022-08-20T11:14:04.807Z,18.10
2022-08-20T11:15:13.125Z,16.70
2022-08-20T11:16:17.008Z,18.17
2022-08-20T11:17:21.217Z,24.87
2022-08-20T11:18:24.696Z,20.27
2022-08-20T11:19:27.195Z,18.47
2022-08-20T11:20:32.103Z,16.13
2022-08-20T11:21:37.787Z,16.70
2022-08-20T11:22:40.566Z,15.70
2022-08-20T11:23:43.794Z,14.93
2022-08-20T11:24:47.188Z,14.70
2022-08-20T11:25:50.680Z,13.90
2022-08-20T11:26:53.730Z,13.40
2022-08-20T11:27:58.592Z,13.87
2022-08-20T11:29:01.340Z,12.97
2022-08-20T11:30:07.873Z,13.60
2022-08-20T11:31:13.747Z,12.30
2022-08-20T11:32:16.389Z,11.50
2022-08-20T11:33:20.313Z,11.20
2022-08-20T11:34:25.424Z,11.60
2022-08-20T11:35:49.043Z,11.97
2022-08-20T11:36:54.812Z,10.77
2022-08-20T11:37:59.235Z,11.57
2022-08-20T11:39:02.822Z,10.50
2022-08-20T11:40:08.957Z,9.90
2022-08-20T11:41:11.722Z,11.53
2022-08-20T11:42:15.857Z,22.63
2022-08-20T11:43:18.663Z,13.90
2022-08-20T11:44:22.710Z,10.43
2022-08-20T11:45:26.104Z,13.00
2022-08-20T11:46:34.022Z,19.47
2022-08-20T11:47:38.513Z,24.27
2022-08-20T11:48:42.439Z,13.90
2022-08-20T11:49:47.435Z,10.93
2022-08-20T11:50:53.801Z,11.80
2022-08-20T11:51:58.502Z,12.57
2022-08-20T11:53:04.966Z,11.80
2022-08-20T11:54:07.254Z,13.23
2022-08-20T11:55:14.533Z,10.70
2022-08-20T11:56:20.631Z,10.07
2022-08-20T11:57:25.594Z,10.40
2022-08-20T11:58:27.856Z,10.20
2022-08-20T11:59:31.040Z,10.40
2022-08-20T12:00:34.613Z,10.40
2022-08-20T12:01:39.337Z,11.77
2022-08-20T12:02:44.941Z,11.40
2022-08-20T12:03:48.391Z,10.67
2022-08-20T12:04:51.215Z,13.03
2022-08-20T12:05:57.111Z,10.33
2022-08-20T12:07:08.351Z,9.93
2022-08-20T12:08:27.491Z,10.77
2022-08-20T12:09:32.942Z,10.90
2022-08-20T12:10:36.975Z,12.30
2022-08-20T12:11:39.181Z,9.77
2022-08-20T12:12:43.087Z,9.60
2022-08-20T12:13:47.899Z,9.60
2022-08-20T12:14:56.121Z,10.20
2022-08-20T12:16:01.440Z,9.33
2022-08-20T12:17:27.568Z,8.73
2022-08-20T12:18:33.497Z,8.53
2022-08-20T12:19:39.037Z,8.90
2022-08-20T12:20:45.285Z,8.17
2022-08-20T12:21:48.264Z,8.10
2022-08-20T12:22:59.086Z,7.90
2022-08-20T12:24:04.366Z,8.60
2022-08-20T12:26:29.457Z,8.63
2022-08-20T12:27:36.859Z,8.60
2022-08-20T12:28:40.736Z,8.00
2022-08-20T12:29:49.147Z,8.57
2022-08-20T12:30:56.614Z,7.83
2022-08-20T12:32:00.026Z,7.50
2022-08-20T12:33:08.952Z,8.03
2022-08-20T12:34:12.311Z,8.07
2022-08-20T12:35:22.973Z,7.60
2022-08-20T12:36:33.720Z,7.70
2022-08-20T12:37:40.584Z,7.57
2022-08-20T12:38:45.011Z,8.50
2022-08-20T12:39:52.211Z,6.63
2022-08-20T12:41:00.086Z,30.20
2022-08-20T12:42:04.810Z,19.57
2022-08-20T12:43:15.333Z,15.47
2022-08-20T12:44:20.357Z,7.50
2022-08-20T12:45:24.985Z,10.40
2022-08-20T12:46:31.148Z,9.60
2022-08-20T12:47:39.737Z,6.30
2022-08-20T12:48:51.035Z,6.97
2022-08-20T12:50:04.967Z,6.43
2022-08-20T12:51:13.342Z,12.57
2022-08-20T12:52:23.432Z,14.00
2022-08-20T12:53:27.185Z,9.17
2022-08-20T12:54:38.571Z,7.77
2022-08-20T12:55:47.461Z,8.53
2022-08-20T12:56:56.491Z,7.70
2022-08-20T12:58:04.283Z,9.10
2022-08-20T12:59:09.300Z,7.20
2022-08-20T13:00:20.902Z,8.40
2022-08-20T13:01:25.916Z,7.57
2022-08-20T13:02:33.171Z,9.43
2022-08-20T13:03:44.861Z,9.47
2022-08-20T13:04:52.956Z,8.17
2022-08-20T13:05:59.741Z,8.60
2022-08-20T13:07:09.468Z,7.97
2022-08-20T13:08:19.662Z,8.87
2022-08-20T13:09:29.543Z,9.37
2022-08-20T13:10:40.251Z,8.33
2022-08-20T13:11:43.694Z,8.63
2022-08-20T13:12:49.367Z,8.33
2022-08-20T13:13:54.561Z,8.23
2022-08-20T13:15:02.585Z,9.03
2022-08-20T13:16:16.707Z,9.63
2022-08-20T13:17:39.164Z,9.07
2022-08-20T13:18:47.244Z,9.27
2022-08-20T13:19:57.461Z,8.93
2022-08-20T13:21:02.238Z,9.27
2022-08-20T13:22:07.108Z,8.83
2022-08-20T13:23:13.736Z,9.90
2022-08-20T13:24:17.889Z,9.23
2022-08-20T13:25:33.145Z,9.20
2022-08-20T13:26:37.447Z,8.77
2022-08-20T13:27:49.237Z,9.47
2022-08-20T13:28:56.317Z,9.67
2022-08-20T13:30:16.256Z,8.97
2022-08-20T13:31:22.379Z,9.55
2022-08-20T13:32:58.643Z,10.68
2022-08-20T13:34:04.405Z,9.30
2022-08-20T13:35:16.660Z,9.37
2022-08-20T13:36:27.579Z,9.73
2022-08-20T13:37:33.017Z,9.50
2022-08-20T13:38:41.095Z,9.50
2022-08-20T13:40:30.471Z,10.10
2022-08-20T13:41:34.611Z,10.00
2022-08-20T13:42:42.984Z,9.02
2022-08-20T13:43:45.075Z,10.70
2022-08-20T13:44:51.600Z,9.80
2022-08-20T13:45:57.635Z,10.20
2022-08-20T13:47:19.885Z,9.20
2022-08-20T13:48:35.703Z,9.37
2022-08-20T13:49:40.162Z,9.50
2022-08-20T13:50:51.358Z,10.13
2022-08-20T13:51:53.825Z,9.27
2022-08-20T13:52:57.852Z,9.30
2022-08-20T13:54:01.271Z,10.25
2022-08-20T13:55:05.816Z,9.40
2022-08-20T13:56:11.058Z,8.90
2022-08-20T13:57:17.215Z,8.70
2022-08-20T13:58:21.716Z,10.07
2022-08-20T13:59:24.153Z,9.17
2022-08-20T14:03:48.443Z,8.95
2022-08-20T14:04:52.696Z,8.10
2022-08-20T14:05:57.892Z,8.70
2022-08-20T14:07:12.960Z,8.30
2022-08-20T14:08:20.930Z,8.57
2022-08-20T14:09:25.751Z,15.97
2022-08-20T14:10:34.260Z,17.43
2022-08-20T14:11:43.772Z,25.20
2022-08-20T14:12:49.302Z,18.27
2022-08-20T14:13:54.945Z,21.10
2022-08-20T14:14:58.537Z,16.90
2022-08-20T14:16:02.340Z,15.23
2022-08-20T14:17:18.208Z,10.52
2022-08-20T14:18:21.924Z,8.88
2022-08-20T14:19:24.261Z,8.65